Somerset, Kentucky
Current Conditions -  °F | °C
As of 8:35 PM on Monday 20 Oct 2014 (Local Time) from KSME Reporting Station
Overcast Overcast  
Wind Chill: 54°   Ceiling: 5500
Heat Index: 54°   Visibility: 10mi
Dew Point: 46°   Wind: 0mph
Humidity: 77%   Direction: NA
Pressure: 30"   Gusts: NA
Location:  37.09°N, 84.6°W
Report Text: KSME 210035Z AUTO 00000KT 10SM BKN055 OVC085 12/08 A3000 RMK AO2 LTG DSNT NE
Loading
Personal Weather Stations






























Interactive Weather Map
Tropical Storm Tracking
New forecast layout! Learn more

10-Day Weather Forecast

Advertisements
Track Severe Weather on mobile